Terminal Aerodrome Forecast
Issued by NWS

Home | Current Version | Previous Version | Text Only | Print | Product List | Glossary On
Versions: 1 2 3 4 5 6 7 8 9 10 11 12 13 14 15 16 17 18 19 20
801
FTUS46 KLOX 271136
TAFBUR
TAF
KBUR 271136Z 2712/2812 VRB03KT P6SM SCT120
     FM271300 VRB03KT P6SM SCT040 SCT120
     FM271700 29007KT P6SM SCT050
     FM272100 27013KT P6SM SKC
     FM280500 VRB05KT P6SM SKC=

USA.gov is the U.S. government's official web portal to all federal, state and local government web resources and services.